AirNav   ATP
 
 1653 users online  

0MI1 Lawler Heliport
Oakland, Michigan, USA

GOING TO OAKLAND?


FAA INFORMATION EFFECTIVE 21 JUNE 2018

Location

FAA Identifier: 0MI1
Lat/Long: 42-44-56.6500N / 083-07-13.4700W
42-44.944167N / 083-07.224500W
42.7490694 / -83.1204083
(estimated)
Elevation: 940 ft. / 287 m (estimated)
From city: 4 miles SW of OAKLAND, MI
Time zone: UTC -4 (UTC -5 during Standard Time)
Zip code: 48306

Heliport Operations

Heliport use: Private use. Permission required prior to landing
Activation date: 06/2016
Control tower: no
ARTCC: CLEVELAND CENTER
FSS: LANSING FLIGHT SERVICE STATION
Attendance: 
Wind indicator: yes
Segmented circle: no

Heliport Communications

WX AWOS-3 at VLL (13 nm S): 119.475 (248-288-4649)
WX ASOS at PTK (14 nm W): 125.025 (248-886-8551)

Nearby radio navigation aids

VOR radial/distance  VOR name  Freq  Var
PSIr084/18.4PONTIAC VORTAC111.0003W
SVMr049/29.2SALEM VORTAC114.3003W
FNTr121/30.5FLINT VORTAC116.9006W
YQGr343/32.6WINDSOR VOR/DME113.8006W
DXOr025/34.0DETROIT VOR/DME113.4006W

 
NDB name  Hdg/Dist  Freq  Var  ID
GROSSE ILE009/38.941907WRYS .-. -.-- ...

Heliport Services

Runway Information

Helipad H1

Dimensions: 40 x 24 ft. / 12 x 7 m
Surface: concrete
Runway edge lights: FLD
Traffic pattern: leftleft

Heliport Ownership and Management from official FAA records

Ownership: Privately-owned
Owner: DAVID M. LAWLER
885 E. GUNN
ROCHESTER, MI 48306
Phone (586) 899-4979
Manager: DAVID M. LAWLER
885 E. GUNN
ROCHESTER, MI 48306
Phone (586) 899-4979

Heliport Operational Statistics

Aircraft based on the field: 1
Helicopters: 1
    

Instrument Procedures

There are no published instrument procedures at 0MI1.

Some nearby airports with instrument procedures:

D98 - Romeo State Airport (7 nm NE)
57D - Ray Community Airport (10 nm E)
KVLL - Oakland/Troy Airport (13 nm S)
KPTK - Oakland County International Airport (14 nm W)
KMTC - Selfridge Air National Guard Base (15 nm SE)
 
Loc | Ops | Rwys | IFR | FBO | Links
Com | Nav | Svcs | Stats | Notes

City of Findlay
 
Aerial photo
No photo
 
Airport distance calculator
Flying to Lawler Heliport? Find the distance to fly.

From to 0MI1

Sunrise and sunset
Times for 17-Jul-2018
 Local
(UTC-4)
 Zulu
(UTC)
Morning civil twilight05:3709:37
Sunrise06:1010:10
Sunset21:0701:07
Evening civil twilight21:4001:40

Current date and time
Zulu (UTC)  17-Jul-2018 19:41:18
Local (UTC-4)  17-Jul-2018 15:41:18
 
METAR
KVLL 
13nm S 
171915Z AUTO 33005KT 10SM BKN060 26/09 A3001 RMK AO2 T02630087
KPTK 
14nm W 
171853Z 32010G18KT 290V360 10SM FEW050 FEW240 25/11 A3000 RMK AO2 SLP152 T02500111
KMTC 
16nm SE 
171856Z 34015G21KT 10SM FEW065 27/12 A2997 RMK AO2A SLP150 ALSTG/SLP ESTMD $
KD95 
20nm N 
171915Z AUTO 01007KT 10SM BKN060 25/08 A3001 RMK AO2 T02450083
KDET 
21nm S 
171853Z 31011G19KT 10SM FEW065 27/11 A2998 RMK AO2 WSHFT 1808 SLP148 T02670106
TAF
KPTK 
14nm W 
171724Z 1718/1818 31011G18KT P6SM FEW050 FM180100 36006KT P6SM SKC FM180300 06004KT P6SM SCT040 FM180600 36006KT P6SM SCT040
KMTC 
16nm SE 
171700Z 1717/1823 36006KT 9999 SCT030 QNH2997INS WND 20006KT AFT 1818 TX26/1720Z TN16/1808Z
NOTAMs
Click for the latest NOTAMs
NOTAMs are issued by the DoD/FAA and will open in a separate window not controlled by AirNav.

 

 
 

Would you like to see your business listed on this page?

 If your business provides an interesting product or service to pilots, flight crews, aircraft, or users of the Lawler Heliport, you should consider listing it here.  To start the listing process, click on the button below
 
Add a business
 

Other Pages about Lawler Heliport

Update a link
 
Copyright © AirNav, LLC. All rights reserved. Privacy Policy  Contact